Flight Track Log - Related Links

Times and Time Zones

All times are in EDT time to prevent confusion due to time zone crossing. See the AWI3780 flight status page for this flight to view local times or setup timezone preferences in your user account.

Time Position Orientation Groundspeed Altitude Reporting Facility
EDT Latitude Longitude Course Direction KTS MPH feet Rate Location/Type
Fri 04:15:00 PM 44.1782 -73.2554 196° South  Level FlightAware Approximate
Fri 04:16:00 PM 44.0823 -73.2938 196° South  Level FlightAware Approximate
Fri 04:16:08 PM 44.3931 -73.3464 189° South 294 338 8,700  Level Boston Center
Fri 04:17:00 PM 43.9864 -73.3322 196° South  Level FlightAware Approximate
Fri 04:17:08 PM 44.3033 -73.3683 190° South 294 338 10,600  Level Boston Center
Fri 04:18:00 PM 43.8905 -73.3702 195° South  Level FlightAware Approximate
Fri 04:18:08 PM 44.2178 -73.3931 192° South 307 353 12,900  Level Boston Center
Fri 04:19:00 PM 43.7941 -73.4058 195° South  Level FlightAware Approximate
Fri 04:19:08 PM 44.1258 -73.4206 192° South 330 380 15,300  Level Boston Center
Fri 04:20:00 PM 43.6977 -73.4414 195° South  Level FlightAware Approximate
Fri 04:20:08 PM 44.0256 -73.4506 192° South 354 407 17,100  Level Boston Center
Fri 04:21:08 PM 43.9253 -73.4778 191° South 364 419 18,400 1,500 Climbing Boston Center
Fri 04:22:08 PM 43.8208 -73.5078 192° South 381 438 20,100 1,600 Climbing Boston Center
Fri 04:23:08 PM 43.7122 -73.5372 191° South 391 450 21,600 1,500 Climbing Boston Center
Fri 04:24:08 PM 43.6036 -73.5669 191° South 397 457 23,100 1,700 Climbing Boston Center
Fri 04:25:08 PM 43.4928 -73.5964 191° South 403 464 25,000 1,450 Climbing Boston Center
Fri 04:26:08 PM 43.3842 -73.6286 192° South 403 464 26,000 500 Climbing Boston Center
Fri 04:27:08 PM 43.2733 -73.6578 191° South 408 470 26,000  Level Boston Center
Fri 04:28:08 PM 43.1625 -73.6897 192° South 408 470 26,000  Level Boston Center
Fri 04:29:08 PM 43.0517 -73.7214 192° South 413 475 26,000  Level Boston Center
Fri 04:30:08 PM 42.9408 -73.7533 192° South 413 475 26,000  Level Boston Center
Fri 04:31:08 PM 42.8344 -73.7822 191° South 407 468 26,000  Level Boston Center
Fri 04:32:08 PM 42.7336 -73.8364 202° Southwest 402 463 26,000  Level Boston Center
Fri 04:33:08 PM 42.6739 -73.9536 235° Southwest 364 419 26,000  Level Boston Center
Fri 04:34:08 PM 42.6117 -74.0819 237° Southwest 383 441 26,000  Level Boston Center
Fri 04:35:08 PM 42.5556 -74.2072 239° Southwest 397 457 26,000  Level Boston Center
Fri 04:36:08 PM 42.4908 -74.3322 235° Southwest 410 472 26,000  Level Boston Center
Fri 04:37:08 PM 42.4261 -74.4625 236° Southwest 410 472 26,000 -191 Level Boston Center
Fri 04:38:45 PM 42.3033 -74.6486 228° Southwest 423 487 25,500 -803 Descending New York Center
Fri 04:39:45 PM 42.2247 -74.7614 227° Southwest 423 487 23,900 -1,537 Descending New York Center
Fri 04:40:46 PM 42.1481 -74.8742 228° Southwest 423 487 22,400 -1,400 Descending New York Center
Fri 04:41:45 PM 42.0800 -74.9733 227° Southwest 418 481 21,100 -1,350 Descending New York Center
Fri 04:42:46 PM 42.0033 -75.0800 226° Southwest 408 470 19,700 -1,033 Descending New York Center
Fri 04:43:47 PM 41.9125 -75.1744 218° Southwest 393 452 19,000 -650 Descending New York Center
Fri 04:44:46 PM 41.8222 -75.2492 212° Southwest 393 452 18,400 -966 Descending New York Center
Fri 04:45:45 PM 41.7319 -75.3239 212° Southwest 393 452 17,100 -1,400 Descending New York Center
Fri 04:46:46 PM 41.6525 -75.3878 211° Southwest 387 445 15,600 -1,488 Descending New York Center
Fri 04:47:46 PM 41.5664 -75.4567 211° Southwest 378 435 14,100 -1,650 Descending New York Center
Fri 04:48:46 PM 41.4739 -75.5306 211° Southwest 367 422 12,300 -1,091 Descending New York Center
Fri 04:49:47 PM 41.3944 -75.5939 211° Southwest 348 400 11,900 -198 Descending New York Center
Fri 04:50:47 PM 41.3211 -75.6494 210° Southwest 348 400 11,900 -101 Level New York Center
Fri 04:51:46 PM 41.2300 -75.6897 198° South 335 386 11,700 -605 Descending New York Center
Fri 04:52:46 PM 41.1531 -75.6869 178° South 312 359 10,700 -893 Descending New York Center
Fri 04:53:47 PM 41.0633 -75.6886 181° South 307 353 9,900 -347 Descending New York Center
Fri 04:54:47 PM 40.9925 -75.6892 180° South 302 348 10,000 51 Climbing New York Center
Fri 04:55:45 PM 40.9031 -75.6881 179° South 297 342 10,000  Level New York Center
Fri 04:56:46 PM 40.8219 -75.6850 178° South 292 336 10,000  Level New York Center
Fri 04:57:44 PM 40.7447 -75.6878 182° South 292 336 10,000  Level New York Center
Fri 04:58:45 PM 40.6719 -75.6853 179° South 292 336 10,000  Level New York Center
Fri 04:59:47 PM 40.5928 -75.6822 178° South 292 336 10,000  Level New York Center
Fri 05:00:44 PM 40.5378 -75.5992 131° Southeast 256 295 10,000  Level New York Center
Fri 05:01:46 PM 40.4956 -75.5142 123° Southeast 268 308 10,000  Level New York Center
Fri 05:02:46 PM 40.4522 -75.4458 130° Southeast 281 323 10,000 -300 Level New York Center
Fri 05:03:46 PM 40.3758 -75.4297 171° South 258 297 9,400 -958 Descending New York Center
Fri 05:04:45 PM 40.2903 -75.4294 180° South 276 318 8,100 -1,210 Descending New York Center
Fri 05:05:45 PM 40.2156 -75.4272 179° South 276 318 7,000 -942 Descending New York Center
Fri 05:06:46 PM 40.1364 -75.4244 178° South 287 330 6,200 -500 Descending New York Center
Fri 05:07:45 PM 40.0697 -75.4200 177° South 277 319 6,000 -100 Descending New York Center
Fri 05:08:46 PM 39.9894 -75.3983 168° South 270 311 6,000  Level New York Center
Fri 05:09:46 PM 39.9367 -75.4167 195° South 213 245 6,000  Level New York Center
Fri 05:10:47 PM 39.9128 -75.4881 246° West 203 234 6,000 -496 Level New York Center
Fri 05:11:47 PM 39.8931 -75.5625 251° West 217 250 5,000 -864 Descending New York Center
Fri 05:12:45 PM 39.8600 -75.6117 229° Southwest 179 206 4,300 -682 Descending New York Center
Fri 05:13:15 PM 39.8500 -75.5833 115° Southeast 177 204 4,000 -645 Descending Philadelphia TRACON
Fri 05:14:46 PM 39.8161 -75.5114 122° Southeast 158 182 3,000 -500 Descending New York Center
Fri 05:15:15 PM 39.8167 -75.4833 89° East 163 188 3,000 -404 Level Philadelphia TRACON
Fri 05:16:15 PM 39.8333 -75.4167 72° East 165 190 2,400 -600 Descending Philadelphia TRACON

Login

Don't have an account? Register now (free) for customized features, flight alerts, and more!